Terminal Aerodrome Forecast
Issued by NWS

Home | Current Version | Previous Version | Text Only | Print | Product List | Glossary On
Versions: 1 2 3 4 5 6 7 8 9 10 11 12 13 14 15 16 17 18 19 20 21 22 23 24 25 26 27 28
000
FTPA31 PHFO 232300
TAFKOA
TAF
PHKO 232335Z 2400/2424 20011KT P6SM BKN060
     FM240500 10008KT P6SM SCT060
     FM241500 14006KT P6SM FEW060
     FM242000 21011KT P6SM SCT060=

USA.gov is the U.S. government's official web portal to all federal, state and local government web resources and services.